sensor_id;sensor_type;location;lat;lon;timestamp;temperature;humidity
4759;DHT22;2393;50.560;12.636;2022-11-30T00:01:35;4.50;99.90
4759;DHT22;2393;50.560;12.636;2022-11-30T00:04:03;4.50;99.90
4759;DHT22;2393;50.560;12.636;2022-11-30T00:06:32;4.50;99.90
4759;DHT22;2393;50.560;12.636;2022-11-30T00:09:00;4.50;99.90
4759;DHT22;2393;50.560;12.636;2022-11-30T00:11:28;4.50;99.90
4759;DHT22;2393;50.560;12.636;2022-11-30T00:13:59;4.50;99.90
4759;DHT22;2393;50.560;12.636;2022-11-30T00:16:27;4.50;99.90
4759;DHT22;2393;50.560;12.636;2022-11-30T00:18:55;4.50;99.90
4759;DHT22;2393;50.560;12.636;2022-11-30T00:21:24;4.50;99.90
4759;DHT22;2393;50.560;12.636;2022-11-30T00:23:52;4.50;99.90
4759;DHT22;2393;50.560;12.636;2022-11-30T00:26:20;4.50;99.90
4759;DHT22;2393;50.560;12.636;2022-11-30T00:28:49;4.50;99.90
4759;DHT22;2393;50.560;12.636;2022-11-30T00:31:18;4.50;99.90
4759;DHT22;2393;50.560;12.636;2022-11-30T00:33:48;4.50;99.90
4759;DHT22;2393;50.560;12.636;2022-11-30T00:36:17;4.40;99.90
4759;DHT22;2393;50.560;12.636;2022-11-30T00:38:46;4.40;99.90
4759;DHT22;2393;50.560;12.636;2022-11-30T00:41:15;4.40;99.90
4759;DHT22;2393;50.560;12.636;2022-11-30T00:43:44;4.40;99.90
4759;DHT22;2393;50.560;12.636;2022-11-30T00:46:13;4.30;99.90
4759;DHT22;2393;50.560;12.636;2022-11-30T00:48:43;4.30;99.90
4759;DHT22;2393;50.560;12.636;2022-11-30T00:51:11;4.30;99.90
4759;DHT22;2393;50.560;12.636;2022-11-30T00:53:40;4.30;99.90
4759;DHT22;2393;50.560;12.636;2022-11-30T00:56:08;4.30;99.90
4759;DHT22;2393;50.560;12.636;2022-11-30T00:58:36;4.30;99.90
4759;DHT22;2393;50.560;12.636;2022-11-30T01:01:05;4.30;99.90
4759;DHT22;2393;50.560;12.636;2022-11-30T01:03:33;4.30;99.90
4759;DHT22;2393;50.560;12.636;2022-11-30T01:06:04;4.20;99.90
4759;DHT22;2393;50.560;12.636;2022-11-30T01:08:33;4.20;99.90
4759;DHT22;2393;50.560;12.636;2022-11-30T01:11:07;4.20;99.90
4759;DHT22;2393;50.560;12.636;2022-11-30T01:13:35;4.20;99.90
4759;DHT22;2393;50.560;12.636;2022-11-30T01:16:08;4.20;99.90
4759;DHT22;2393;50.560;12.636;2022-11-30T01:18:37;4.20;99.90
4759;DHT22;2393;50.560;12.636;2022-11-30T01:21:07;4.20;99.90
4759;DHT22;2393;50.560;12.636;2022-11-30T01:23:36;4.20;99.90
4759;DHT22;2393;50.560;12.636;2022-11-30T01:26:04;4.20;99.90
4759;DHT22;2393;50.560;12.636;2022-11-30T01:28:32;4.20;99.90
4759;DHT22;2393;50.560;12.636;2022-11-30T01:31:02;4.10;99.90
4759;DHT22;2393;50.560;12.636;2022-11-30T01:33:30;4.10;99.90
4759;DHT22;2393;50.560;12.636;2022-11-30T01:36:00;4.10;99.90
4759;DHT22;2393;50.560;12.636;2022-11-30T01:38:35;4.10;99.90
4759;DHT22;2393;50.560;12.636;2022-11-30T01:41:05;4.10;99.90
4759;DHT22;2393;50.560;12.636;2022-11-30T01:43:41;4.10;99.90
4759;DHT22;2393;50.560;12.636;2022-11-30T01:46:20;4.00;99.90
4759;DHT22;2393;50.560;12.636;2022-11-30T01:48:55;4.10;99.90
4759;DHT22;2393;50.560;12.636;2022-11-30T01:51:26;4.00;99.90
4759;DHT22;2393;50.560;12.636;2022-11-30T01:53:58;4.00;99.90
4759;DHT22;2393;50.560;12.636;2022-11-30T01:56:27;4.00;99.90
4759;DHT22;2393;50.560;12.636;2022-11-30T01:58:55;4.00;99.90
4759;DHT22;2393;50.560;12.636;2022-11-30T02:01:24;4.00;99.90
4759;DHT22;2393;50.560;12.636;2022-11-30T02:03:55;4.00;99.90
4759;DHT22;2393;50.560;12.636;2022-11-30T02:06:24;4.00;99.90
4759;DHT22;2393;50.560;12.636;2022-11-30T02:08:53;4.00;99.90
4759;DHT22;2393;50.560;12.636;2022-11-30T02:11:25;4.00;99.90
4759;DHT22;2393;50.560;12.636;2022-11-30T02:14:16;3.90;99.90
4759;DHT22;2393;50.560;12.636;2022-11-30T02:16:51;4.00;99.90
4759;DHT22;2393;50.560;12.636;2022-11-30T02:22:23;3.90;99.90
4759;DHT22;2393;50.560;12.636;2022-11-30T02:25:02;3.70;99.90
4759;DHT22;2393;50.560;12.636;2022-11-30T02:27:47;3.80;99.90
4759;DHT22;2393;50.560;12.636;2022-11-30T02:30:21;3.80;99.90
4759;DHT22;2393;50.560;12.636;2022-11-30T02:32:54;3.80;99.90
4759;DHT22;2393;50.560;12.636;2022-11-30T02:35:25;3.60;99.90
4759;DHT22;2393;50.560;12.636;2022-11-30T02:37:56;3.60;99.90
4759;DHT22;2393;50.560;12.636;2022-11-30T02:40:24;3.60;99.90
4759;DHT22;2393;50.560;12.636;2022-11-30T02:42:53;3.60;99.90
4759;DHT22;2393;50.560;12.636;2022-11-30T02:45:28;3.70;99.90
4759;DHT22;2393;50.560;12.636;2022-11-30T02:48:03;3.70;99.90
4759;DHT22;2393;50.560;12.636;2022-11-30T02:50:38;3.70;99.90
4759;DHT22;2393;50.560;12.636;2022-11-30T02:53:08;3.60;99.90
4759;DHT22;2393;50.560;12.636;2022-11-30T02:55:37;3.50;99.90
4759;DHT22;2393;50.560;12.636;2022-11-30T02:58:05;3.40;99.90
4759;DHT22;2393;50.560;12.636;2022-11-30T03:00:34;3.50;99.90
4759;DHT22;2393;50.560;12.636;2022-11-30T03:03:03;3.60;99.90
4759;DHT22;2393;50.560;12.636;2022-11-30T03:05:31;3.60;99.90
4759;DHT22;2393;50.560;12.636;2022-11-30T03:07:59;3.70;99.90
4759;DHT22;2393;50.560;12.636;2022-11-30T03:10:27;3.70;99.90
4759;DHT22;2393;50.560;12.636;2022-11-30T03:12:56;3.70;99.90
4759;DHT22;2393;50.560;12.636;2022-11-30T03:15:25;3.80;99.90
4759;DHT22;2393;50.560;12.636;2022-11-30T03:17:55;3.80;99.90
4759;DHT22;2393;50.560;12.636;2022-11-30T03:20:23;3.80;99.90
4759;DHT22;2393;50.560;12.636;2022-11-30T03:22:51;3.80;99.90
4759;DHT22;2393;50.560;12.636;2022-11-30T03:25:19;3.80;99.90
4759;DHT22;2393;50.560;12.636;2022-11-30T03:27:47;3.90;99.90
4759;DHT22;2393;50.560;12.636;2022-11-30T03:30:15;3.80;99.90
4759;DHT22;2393;50.560;12.636;2022-11-30T03:32:43;3.80;99.90
4759;DHT22;2393;50.560;12.636;2022-11-30T03:35:13;3.80;99.90
4759;DHT22;2393;50.560;12.636;2022-11-30T03:37:41;3.80;99.90
4759;DHT22;2393;50.560;12.636;2022-11-30T03:40:10;3.80;99.90
4759;DHT22;2393;50.560;12.636;2022-11-30T03:42:38;3.80;99.90
4759;DHT22;2393;50.560;12.636;2022-11-30T03:45:07;3.80;99.90
4759;DHT22;2393;50.560;12.636;2022-11-30T03:47:36;3.80;99.90
4759;DHT22;2393;50.560;12.636;2022-11-30T03:50:05;3.80;99.90
4759;DHT22;2393;50.560;12.636;2022-11-30T03:52:35;3.80;99.90
4759;DHT22;2393;50.560;12.636;2022-11-30T03:55:03;3.80;99.90
4759;DHT22;2393;50.560;12.636;2022-11-30T03:57:31;3.80;99.90
4759;DHT22;2393;50.560;12.636;2022-11-30T03:59:59;3.80;99.90
4759;DHT22;2393;50.560;12.636;2022-11-30T04:02:37;3.80;99.90
4759;DHT22;2393;50.560;12.636;2022-11-30T04:05:10;3.80;99.90
4759;DHT22;2393;50.560;12.636;2022-11-30T04:07:40;3.80;99.90
4759;DHT22;2393;50.560;12.636;2022-11-30T04:10:09;3.70;99.90
4759;DHT22;2393;50.560;12.636;2022-11-30T04:12:38;3.70;99.90
4759;DHT22;2393;50.560;12.636;2022-11-30T04:15:07;3.70;99.90
4759;DHT22;2393;50.560;12.636;2022-11-30T04:17:35;3.70;99.90
4759;DHT22;2393;50.560;12.636;2022-11-30T04:20:04;3.70;99.90
4759;DHT22;2393;50.560;12.636;2022-11-30T04:22:35;3.70;99.90
4759;DHT22;2393;50.560;12.636;2022-11-30T04:25:05;3.70;99.90
4759;DHT22;2393;50.560;12.636;2022-11-30T04:27:34;3.70;99.90
4759;DHT22;2393;50.560;12.636;2022-11-30T04:30:02;3.70;99.90
4759;DHT22;2393;50.560;12.636;2022-11-30T04:32:31;3.70;99.90
4759;DHT22;2393;50.560;12.636;2022-11-30T04:34:59;3.60;99.90
4759;DHT22;2393;50.560;12.636;2022-11-30T04:37:27;3.70;99.90
4759;DHT22;2393;50.560;12.636;2022-11-30T04:39:55;3.60;99.90
4759;DHT22;2393;50.560;12.636;2022-11-30T04:42:25;3.60;99.90
4759;DHT22;2393;50.560;12.636;2022-11-30T04:44:53;3.60;99.90
4759;DHT22;2393;50.560;12.636;2022-11-30T04:47:21;3.60;99.90
4759;DHT22;2393;50.560;12.636;2022-11-30T04:49:49;3.70;99.90
4759;DHT22;2393;50.560;12.636;2022-11-30T04:52:17;3.60;99.90
4759;DHT22;2393;50.560;12.636;2022-11-30T04:54:45;3.60;99.90
4759;DHT22;2393;50.560;12.636;2022-11-30T04:57:13;3.60;99.90
4759;DHT22;2393;50.560;12.636;2022-11-30T04:59:43;3.70;99.90
4759;DHT22;2393;50.560;12.636;2022-11-30T05:02:11;3.70;99.90
4759;DHT22;2393;50.560;12.636;2022-11-30T05:04:39;3.60;99.90
4759;DHT22;2393;50.560;12.636;2022-11-30T05:07:07;3.60;99.90
4759;DHT22;2393;50.560;12.636;2022-11-30T05:09:35;3.60;99.90
4759;DHT22;2393;50.560;12.636;2022-11-30T05:12:04;3.60;99.90
4759;DHT22;2393;50.560;12.636;2022-11-30T05:14:32;3.70;99.90
4759;DHT22;2393;50.560;12.636;2022-11-30T05:17:01;3.60;99.90
4759;DHT22;2393;50.560;12.636;2022-11-30T05:19:30;3.60;99.90
4759;DHT22;2393;50.560;12.636;2022-11-30T05:21:58;3.60;99.90
4759;DHT22;2393;50.560;12.636;2022-11-30T05:24:26;3.60;99.90
4759;DHT22;2393;50.560;12.636;2022-11-30T05:26:54;3.60;99.90
4759;DHT22;2393;50.560;12.636;2022-11-30T05:29:23;3.60;99.90
4759;DHT22;2393;50.560;12.636;2022-11-30T05:31:51;3.60;99.90
4759;DHT22;2393;50.560;12.636;2022-11-30T05:34:20;3.60;99.90
4759;DHT22;2393;50.560;12.636;2022-11-30T05:36:48;3.60;99.90
4759;DHT22;2393;50.560;12.636;2022-11-30T05:39:16;3.60;99.90
4759;DHT22;2393;50.560;12.636;2022-11-30T05:41:44;3.60;99.90
4759;DHT22;2393;50.560;12.636;2022-11-30T05:44:12;3.60;99.90
4759;DHT22;2393;50.560;12.636;2022-11-30T05:46:41;3.50;99.90
4759;DHT22;2393;50.560;12.636;2022-11-30T05:49:09;3.60;99.90
4759;DHT22;2393;50.560;12.636;2022-11-30T05:51:39;3.50;99.90
4759;DHT22;2393;50.560;12.636;2022-11-30T05:54:07;3.50;99.90
4759;DHT22;2393;50.560;12.636;2022-11-30T05:56:35;3.50;99.90
4759;DHT22;2393;50.560;12.636;2022-11-30T05:59:03;3.50;99.90
4759;DHT22;2393;50.560;12.636;2022-11-30T06:01:31;3.50;99.90
4759;DHT22;2393;50.560;12.636;2022-11-30T06:04:04;3.50;99.90
4759;DHT22;2393;50.560;12.636;2022-11-30T06:06:34;3.50;99.90
4759;DHT22;2393;50.560;12.636;2022-11-30T06:09:04;3.50;99.90
4759;DHT22;2393;50.560;12.636;2022-11-30T06:11:32;3.50;99.90
4759;DHT22;2393;50.560;12.636;2022-11-30T06:14:00;3.50;99.90
4759;DHT22;2393;50.560;12.636;2022-11-30T06:16:28;3.50;99.90
4759;DHT22;2393;50.560;12.636;2022-11-30T06:18:56;3.50;99.90
4759;DHT22;2393;50.560;12.636;2022-11-30T06:21:24;3.50;99.90
4759;DHT22;2393;50.560;12.636;2022-11-30T06:23:52;3.50;99.90
4759;DHT22;2393;50.560;12.636;2022-11-30T06:26:22;3.40;99.90
4759;DHT22;2393;50.560;12.636;2022-11-30T06:28:50;3.40;99.90
4759;DHT22;2393;50.560;12.636;2022-11-30T06:31:18;3.40;99.90
4759;DHT22;2393;50.560;12.636;2022-11-30T06:33:46;3.40;99.90
4759;DHT22;2393;50.560;12.636;2022-11-30T06:36:20;3.40;99.90
4759;DHT22;2393;50.560;12.636;2022-11-30T06:38:49;3.30;99.90
4759;DHT22;2393;50.560;12.636;2022-11-30T06:41:17;3.30;99.90
4759;DHT22;2393;50.560;12.636;2022-11-30T06:43:47;3.30;99.90
4759;DHT22;2393;50.560;12.636;2022-11-30T06:46:15;3.30;99.90
4759;DHT22;2393;50.560;12.636;2022-11-30T06:48:46;3.30;99.90
4759;DHT22;2393;50.560;12.636;2022-11-30T06:51:15;3.30;99.90
4759;DHT22;2393;50.560;12.636;2022-11-30T06:53:43;3.30;99.90
4759;DHT22;2393;50.560;12.636;2022-11-30T06:56:12;3.30;99.90
4759;DHT22;2393;50.560;12.636;2022-11-30T06:58:40;3.30;99.90
4759;DHT22;2393;50.560;12.636;2022-11-30T07:01:11;3.30;99.90
4759;DHT22;2393;50.560;12.636;2022-11-30T07:03:40;3.30;99.90
4759;DHT22;2393;50.560;12.636;2022-11-30T07:06:10;3.30;99.90
4759;DHT22;2393;50.560;12.636;2022-11-30T07:08:39;3.30;99.90
4759;DHT22;2393;50.560;12.636;2022-11-30T07:11:09;3.30;99.90
4759;DHT22;2393;50.560;12.636;2022-11-30T07:13:37;3.30;99.90
4759;DHT22;2393;50.560;12.636;2022-11-30T07:16:07;3.30;99.90
4759;DHT22;2393;50.560;12.636;2022-11-30T07:18:38;3.30;99.90
4759;DHT22;2393;50.560;12.636;2022-11-30T07:21:06;3.40;99.90
4759;DHT22;2393;50.560;12.636;2022-11-30T07:23:34;3.40;99.90
4759;DHT22;2393;50.560;12.636;2022-11-30T07:26:23;3.40;99.90
4759;DHT22;2393;50.560;12.636;2022-11-30T07:28:52;3.40;99.90
4759;DHT22;2393;50.560;12.636;2022-11-30T07:31:25;3.40;99.90
4759;DHT22;2393;50.560;12.636;2022-11-30T07:33:55;3.40;99.90
4759;DHT22;2393;50.560;12.636;2022-11-30T07:36:25;3.40;99.90
4759;DHT22;2393;50.560;12.636;2022-11-30T07:38:55;3.40;99.90
4759;DHT22;2393;50.560;12.636;2022-11-30T07:41:23;3.50;99.90
4759;DHT22;2393;50.560;12.636;2022-11-30T07:43:51;3.50;99.90
4759;DHT22;2393;50.560;12.636;2022-11-30T07:46:20;3.50;99.90
4759;DHT22;2393;50.560;12.636;2022-11-30T07:48:48;3.50;99.90
4759;DHT22;2393;50.560;12.636;2022-11-30T07:51:19;3.60;99.90
4759;DHT22;2393;50.560;12.636;2022-11-30T07:53:48;3.60;99.90
4759;DHT22;2393;50.560;12.636;2022-11-30T07:56:17;3.60;99.90
4759;DHT22;2393;50.560;12.636;2022-11-30T07:58:46;3.60;99.90
4759;DHT22;2393;50.560;12.636;2022-11-30T08:01:17;3.70;99.90
4759;DHT22;2393;50.560;12.636;2022-11-30T08:03:45;3.80;99.90
4759;DHT22;2393;50.560;12.636;2022-11-30T08:06:14;3.80;99.90
4759;DHT22;2393;50.560;12.636;2022-11-30T08:08:48;3.90;99.90
4759;DHT22;2393;50.560;12.636;2022-11-30T08:11:18;3.90;99.90
4759;DHT22;2393;50.560;12.636;2022-11-30T08:13:46;3.90;99.90
4759;DHT22;2393;50.560;12.636;2022-11-30T08:16:16;4.00;99.90
4759;DHT22;2393;50.560;12.636;2022-11-30T08:18:44;3.80;99.90
4759;DHT22;2393;50.560;12.636;2022-11-30T08:21:14;3.90;99.90
4759;DHT22;2393;50.560;12.636;2022-11-30T08:23:44;3.90;99.90
4759;DHT22;2393;50.560;12.636;2022-11-30T08:26:15;3.70;99.90
4759;DHT22;2393;50.560;12.636;2022-11-30T08:28:44;3.80;99.90
4759;DHT22;2393;50.560;12.636;2022-11-30T08:31:16;3.60;99.90
4759;DHT22;2393;50.560;12.636;2022-11-30T08:33:45;3.80;99.90
4759;DHT22;2393;50.560;12.636;2022-11-30T08:36:14;3.90;99.90
4759;DHT22;2393;50.560;12.636;2022-11-30T08:38:43;4.00;99.90
4759;DHT22;2393;50.560;12.636;2022-11-30T08:41:15;4.20;99.90
4759;DHT22;2393;50.560;12.636;2022-11-30T08:43:44;4.40;99.90
4759;DHT22;2393;50.560;12.636;2022-11-30T08:46:14;4.60;99.90
4759;DHT22;2393;50.560;12.636;2022-11-30T08:49:03;4.70;99.90
4759;DHT22;2393;50.560;12.636;2022-11-30T08:51:50;4.80;99.90
4759;DHT22;2393;50.560;12.636;2022-11-30T08:54:41;4.60;99.90
4759;DHT22;2393;50.560;12.636;2022-11-30T08:57:14;4.90;99.90
4759;DHT22;2393;50.560;12.636;2022-11-30T08:59:43;5.40;99.90
4759;DHT22;2393;50.560;12.636;2022-11-30T09:02:12;5.60;99.90
4759;DHT22;2393;50.560;12.636;2022-11-30T09:04:43;5.50;99.90
4759;DHT22;2393;50.560;12.636;2022-11-30T09:07:13;5.50;99.90
4759;DHT22;2393;50.560;12.636;2022-11-30T09:09:41;5.40;99.90
4759;DHT22;2393;50.560;12.636;2022-11-30T09:12:10;5.50;99.90
4759;DHT22;2393;50.560;12.636;2022-11-30T09:14:40;5.70;99.90
4759;DHT22;2393;50.560;12.636;2022-11-30T09:17:08;5.60;99.90
4759;DHT22;2393;50.560;12.636;2022-11-30T09:19:36;5.80;99.90
4759;DHT22;2393;50.560;12.636;2022-11-30T09:22:04;6.20;99.90
4759;DHT22;2393;50.560;12.636;2022-11-30T09:24:32;6.70;99.90
4759;DHT22;2393;50.560;12.636;2022-11-30T09:27:00;7.00;99.90
4759;DHT22;2393;50.560;12.636;2022-11-30T09:29:28;7.20;99.90
4759;DHT22;2393;50.560;12.636;2022-11-30T09:31:57;6.90;99.90
4759;DHT22;2393;50.560;12.636;2022-11-30T09:34:26;6.90;99.90
4759;DHT22;2393;50.560;12.636;2022-11-30T09:36:54;7.00;99.90
4759;DHT22;2393;50.560;12.636;2022-11-30T09:39:22;7.50;99.90
4759;DHT22;2393;50.560;12.636;2022-11-30T09:42:23;8.50;99.90
4759;DHT22;2393;50.560;12.636;2022-11-30T09:44:59;9.50;99.90
4759;DHT22;2393;50.560;12.636;2022-11-30T09:47:41;10.30;99.90
4759;DHT22;2393;50.560;12.636;2022-11-30T09:50:13;10.60;99.90
4759;DHT22;2393;50.560;12.636;2022-11-30T09:52:45;11.00;99.90
4759;DHT22;2393;50.560;12.636;2022-11-30T09:55:20;11.00;99.90
4759;DHT22;2393;50.560;12.636;2022-11-30T09:57:51;11.30;99.90
4759;DHT22;2393;50.560;12.636;2022-11-30T10:00:22;11.50;99.90
4759;DHT22;2393;50.560;12.636;2022-11-30T10:02:55;11.70;99.90
4759;DHT22;2393;50.560;12.636;2022-11-30T10:05:26;12.20;99.90
4759;DHT22;2393;50.560;12.636;2022-11-30T10:08:22;12.10;99.90
4759;DHT22;2393;50.560;12.636;2022-11-30T10:11:02;12.20;99.90
4759;DHT22;2393;50.560;12.636;2022-11-30T10:13:46;12.70;99.90
4759;DHT22;2393;50.560;12.636;2022-11-30T10:16:23;13.30;99.90
4759;DHT22;2393;50.560;12.636;2022-11-30T10:19:01;13.80;99.90
4759;DHT22;2393;50.560;12.636;2022-11-30T10:21:43;14.40;99.90
4759;DHT22;2393;50.560;12.636;2022-11-30T10:24:22;14.60;99.90
4759;DHT22;2393;50.560;12.636;2022-11-30T10:26:55;15.00;99.90
4759;DHT22;2393;50.560;12.636;2022-11-30T10:29:29;15.00;99.90
4759;DHT22;2393;50.560;12.636;2022-11-30T10:32:00;14.90;99.40
4759;DHT22;2393;50.560;12.636;2022-11-30T10:34:34;14.90;99.30
4759;DHT22;2393;50.560;12.636;2022-11-30T10:37:08;14.60;98.70
4759;DHT22;2393;50.560;12.636;2022-11-30T10:39:42;14.20;98.50
4759;DHT22;2393;50.560;12.636;2022-11-30T10:42:16;14.40;99.10
4759;DHT22;2393;50.560;12.636;2022-11-30T10:44:54;14.50;99.10
4759;DHT22;2393;50.560;12.636;2022-11-30T10:47:27;14.00;98.00
4759;DHT22;2393;50.560;12.636;2022-11-30T10:49:58;13.50;98.70
4759;DHT22;2393;50.560;12.636;2022-11-30T10:52:29;13.90;99.40
4759;DHT22;2393;50.560;12.636;2022-11-30T10:54:57;14.10;99.90
4759;DHT22;2393;50.560;12.636;2022-11-30T10:57:31;13.60;99.40
4759;DHT22;2393;50.560;12.636;2022-11-30T11:00:03;13.40;98.50
4759;DHT22;2393;50.560;12.636;2022-11-30T11:02:38;12.70;99.40
4759;DHT22;2393;50.560;12.636;2022-11-30T11:07:56;12.50;99.90
4759;DHT22;2393;50.560;12.636;2022-11-30T11:10:33;12.90;98.60
4759;DHT22;2393;50.560;12.636;2022-11-30T11:13:03;13.30;98.10
4759;DHT22;2393;50.560;12.636;2022-11-30T11:15:32;13.20;97.70
4759;DHT22;2393;50.560;12.636;2022-11-30T11:18:22;12.90;97.70
4759;DHT22;2393;50.560;12.636;2022-11-30T11:21:02;12.90;97.80
4759;DHT22;2393;50.560;12.636;2022-11-30T11:23:35;13.10;98.00
4759;DHT22;2393;50.560;12.636;2022-11-30T11:26:05;13.20;98.10
4759;DHT22;2393;50.560;12.636;2022-11-30T11:28:35;13.40;96.90
4759;DHT22;2393;50.560;12.636;2022-11-30T11:31:16;13.50;97.30
4759;DHT22;2393;50.560;12.636;2022-11-30T11:33:50;13.60;96.70
4759;DHT22;2393;50.560;12.636;2022-11-30T11:36:25;13.60;97.10
4759;DHT22;2393;50.560;12.636;2022-11-30T11:38:53;13.80;96.80
4759;DHT22;2393;50.560;12.636;2022-11-30T11:41:24;14.00;96.90
4759;DHT22;2393;50.560;12.636;2022-11-30T11:44:02;14.10;96.60
4759;DHT22;2393;50.560;12.636;2022-11-30T11:46:31;14.20;96.30
4759;DHT22;2393;50.560;12.636;2022-11-30T11:49:01;14.10;96.40
4759;DHT22;2393;50.560;12.636;2022-11-30T11:51:32;13.80;95.40
4759;DHT22;2393;50.560;12.636;2022-11-30T11:54:05;13.60;95.50
4759;DHT22;2393;50.560;12.636;2022-11-30T11:56:39;13.50;95.70
4759;DHT22;2393;50.560;12.636;2022-11-30T11:59:12;13.20;96.20
4759;DHT22;2393;50.560;12.636;2022-11-30T12:01:51;12.70;96.10
4759;DHT22;2393;50.560;12.636;2022-11-30T12:04:32;12.50;96.70
4759;DHT22;2393;50.560;12.636;2022-11-30T12:07:13;12.30;96.30
4759;DHT22;2393;50.560;12.636;2022-11-30T12:10:00;12.10;97.20
4759;DHT22;2393;50.560;12.636;2022-11-30T12:12:47;11.80;96.90
4759;DHT22;2393;50.560;12.636;2022-11-30T12:15:25;11.60;97.60
4759;DHT22;2393;50.560;12.636;2022-11-30T12:18:02;11.30;97.10
4759;DHT22;2393;50.560;12.636;2022-11-30T12:20:49;11.20;97.90
4759;DHT22;2393;50.560;12.636;2022-11-30T12:23:38;11.10;97.40
4759;DHT22;2393;50.560;12.636;2022-11-30T12:26:15;11.00;97.60
4759;DHT22;2393;50.560;12.636;2022-11-30T12:28:58;11.10;98.40
4759;DHT22;2393;50.560;12.636;2022-11-30T12:31:34;11.10;98.20
4759;DHT22;2393;50.560;12.636;2022-11-30T12:34:11;11.00;97.40
4759;DHT22;2393;50.560;12.636;2022-11-30T12:36:49;10.90;97.40
4759;DHT22;2393;50.560;12.636;2022-11-30T12:39:28;10.80;97.40
4759;DHT22;2393;50.560;12.636;2022-11-30T12:42:02;10.60;98.00
4759;DHT22;2393;50.560;12.636;2022-11-30T12:44:40;10.40;98.20
4759;DHT22;2393;50.560;12.636;2022-11-30T12:47:25;10.40;98.80
4759;DHT22;2393;50.560;12.636;2022-11-30T12:50:09;10.30;98.70
4759;DHT22;2393;50.560;12.636;2022-11-30T12:52:44;10.30;99.30
4759;DHT22;2393;50.560;12.636;2022-11-30T12:55:24;10.20;98.80
4759;DHT22;2393;50.560;12.636;2022-11-30T12:58:01;10.10;99.00
4759;DHT22;2393;50.560;12.636;2022-11-30T13:00:42;10.10;99.20
4759;DHT22;2393;50.560;12.636;2022-11-30T13:03:31;10.10;99.40
4759;DHT22;2393;50.560;12.636;2022-11-30T13:06:07;10.00;99.20
4759;DHT22;2393;50.560;12.636;2022-11-30T13:08:43;9.90;99.90
4759;DHT22;2393;50.560;12.636;2022-11-30T13:11:17;9.90;99.80
4759;DHT22;2393;50.560;12.636;2022-11-30T13:13:49;9.90;99.60
4759;DHT22;2393;50.560;12.636;2022-11-30T13:16:18;10.00;99.70
4759;DHT22;2393;50.560;12.636;2022-11-30T13:18:48;10.00;99.40
4759;DHT22;2393;50.560;12.636;2022-11-30T13:21:23;9.90;99.90
4759;DHT22;2393;50.560;12.636;2022-11-30T13:23:58;9.90;99.90
4759;DHT22;2393;50.560;12.636;2022-11-30T13:26:36;9.80;99.90
4759;DHT22;2393;50.560;12.636;2022-11-30T13:29:16;9.80;99.90
4759;DHT22;2393;50.560;12.636;2022-11-30T13:31:51;9.50;99.90
4759;DHT22;2393;50.560;12.636;2022-11-30T13:34:25;9.20;99.90
4759;DHT22;2393;50.560;12.636;2022-11-30T13:37:01;8.90;99.90
4759;DHT22;2393;50.560;12.636;2022-11-30T13:39:43;8.80;99.90
4759;DHT22;2393;50.560;12.636;2022-11-30T13:45:27;8.40;99.90
4759;DHT22;2393;50.560;12.636;2022-11-30T13:47:56;8.00;99.90
4759;DHT22;2393;50.560;12.636;2022-11-30T13:50:33;7.80;99.90
4759;DHT22;2393;50.560;12.636;2022-11-30T13:55:59;7.40;99.90
4759;DHT22;2393;50.560;12.636;2022-11-30T13:58:29;7.10;99.90
4759;DHT22;2393;50.560;12.636;2022-11-30T14:01:27;6.90;99.90
4759;DHT22;2393;50.560;12.636;2022-11-30T14:04:21;6.70;99.90
4759;DHT22;2393;50.560;12.636;2022-11-30T14:06:50;6.50;99.90
4759;DHT22;2393;50.560;12.636;2022-11-30T14:12:57;6.20;99.90
4759;DHT22;2393;50.560;12.636;2022-11-30T14:15:29;6.00;99.90
4759;DHT22;2393;50.560;12.636;2022-11-30T14:18:37;5.80;99.90
4759;DHT22;2393;50.560;12.636;2022-11-30T14:21:22;5.50;99.90
4759;DHT22;2393;50.560;12.636;2022-11-30T14:23:59;5.10;99.90
4759;DHT22;2393;50.560;12.636;2022-11-30T14:26:31;5.10;99.90
4759;DHT22;2393;50.560;12.636;2022-11-30T14:29:08;5.10;99.90
4759;DHT22;2393;50.560;12.636;2022-11-30T14:31:48;5.10;99.90
4759;DHT22;2393;50.560;12.636;2022-11-30T14:34:21;4.80;99.90
4759;DHT22;2393;50.560;12.636;2022-11-30T14:36:52;4.80;99.90
4759;DHT22;2393;50.560;12.636;2022-11-30T14:39:24;4.80;99.90
4759;DHT22;2393;50.560;12.636;2022-11-30T14:41:52;4.80;99.90
4759;DHT22;2393;50.560;12.636;2022-11-30T14:44:21;4.70;99.90
4759;DHT22;2393;50.560;12.636;2022-11-30T14:46:50;4.50;99.90
4759;DHT22;2393;50.560;12.636;2022-11-30T14:49:20;4.50;99.90
4759;DHT22;2393;50.560;12.636;2022-11-30T14:51:51;4.30;99.90
4759;DHT22;2393;50.560;12.636;2022-11-30T14:54:40;4.00;99.90
4759;DHT22;2393;50.560;12.636;2022-11-30T14:57:17;3.90;99.90
4759;DHT22;2393;50.560;12.636;2022-11-30T14:59:48;3.90;99.90
4759;DHT22;2393;50.560;12.636;2022-11-30T15:02:27;3.90;99.90
4759;DHT22;2393;50.560;12.636;2022-11-30T15:04:56;3.80;99.90
4759;DHT22;2393;50.560;12.636;2022-11-30T15:07:26;3.80;99.90
4759;DHT22;2393;50.560;12.636;2022-11-30T15:10:01;3.70;99.90
4759;DHT22;2393;50.560;12.636;2022-11-30T15:12:31;3.60;99.90
4759;DHT22;2393;50.560;12.636;2022-11-30T15:15:01;3.40;99.90
4759;DHT22;2393;50.560;12.636;2022-11-30T15:17:31;3.20;99.90
4759;DHT22;2393;50.560;12.636;2022-11-30T15:19:59;3.20;99.90
4759;DHT22;2393;50.560;12.636;2022-11-30T15:22:32;3.10;99.90
4759;DHT22;2393;50.560;12.636;2022-11-30T15:25:13;3.10;99.90
4759;DHT22;2393;50.560;12.636;2022-11-30T15:27:41;3.00;99.90
4759;DHT22;2393;50.560;12.636;2022-11-30T15:30:13;3.00;99.90
4759;DHT22;2393;50.560;12.636;2022-11-30T15:32:49;2.90;99.90
4759;DHT22;2393;50.560;12.636;2022-11-30T15:35:21;2.80;99.90
4759;DHT22;2393;50.560;12.636;2022-11-30T15:37:49;2.70;99.90
4759;DHT22;2393;50.560;12.636;2022-11-30T15:40:28;2.50;99.90
4759;DHT22;2393;50.560;12.636;2022-11-30T15:42:57;2.50;99.90
4759;DHT22;2393;50.560;12.636;2022-11-30T15:45:27;2.60;99.90
4759;DHT22;2393;50.560;12.636;2022-11-30T15:47:58;2.60;99.90
4759;DHT22;2393;50.560;12.636;2022-11-30T15:50:33;2.50;99.90
4759;DHT22;2393;50.560;12.636;2022-11-30T15:53:24;2.40;99.90
4759;DHT22;2393;50.560;12.636;2022-11-30T15:55:54;2.50;99.90
4759;DHT22;2393;50.560;12.636;2022-11-30T15:58:31;2.60;99.90
4759;DHT22;2393;50.560;12.636;2022-11-30T16:01:03;2.60;99.90
4759;DHT22;2393;50.560;12.636;2022-11-30T16:03:35;2.60;99.90
4759;DHT22;2393;50.560;12.636;2022-11-30T16:06:04;2.50;99.90
4759;DHT22;2393;50.560;12.636;2022-11-30T16:08:32;2.40;99.90
4759;DHT22;2393;50.560;12.636;2022-11-30T16:11:00;2.30;99.90
4759;DHT22;2393;50.560;12.636;2022-11-30T16:13:33;2.40;99.90
4759;DHT22;2393;50.560;12.636;2022-11-30T16:16:09;2.40;99.90
4759;DHT22;2393;50.560;12.636;2022-11-30T16:18:39;2.40;99.90
4759;DHT22;2393;50.560;12.636;2022-11-30T16:21:10;2.60;99.90
4759;DHT22;2393;50.560;12.636;2022-11-30T16:23:42;2.50;99.90
4759;DHT22;2393;50.560;12.636;2022-11-30T16:26:11;2.40;99.90
4759;DHT22;2393;50.560;12.636;2022-11-30T16:29:00;2.50;99.90
4759;DHT22;2393;50.560;12.636;2022-11-30T16:31:30;2.40;99.90
4759;DHT22;2393;50.560;12.636;2022-11-30T16:34:00;2.50;99.90
4759;DHT22;2393;50.560;12.636;2022-11-30T16:36:28;2.50;99.90
4759;DHT22;2393;50.560;12.636;2022-11-30T16:38:56;2.50;99.90
4759;DHT22;2393;50.560;12.636;2022-11-30T16:41:26;2.50;99.90
4759;DHT22;2393;50.560;12.636;2022-11-30T16:43:55;2.60;99.90
4759;DHT22;2393;50.560;12.636;2022-11-30T16:46:25;2.60;99.90